Time;durP1;ratioP1;P1;durP2;ratioP2;P2;SDS_P1;SDS_P2;PMS_P1;PMS_P2;Temp;Humidity;BMP_temperature;BMP_pressure;BME280_temperature;BME280_humidity;BME280_pressure;Samples;Min_cycle;Max_cycle;Signal;HPM_P1;HPM_P2
2023/12/03 00:00:11;;;;;;;11.55;8.05;;;;;;;;;;5057066;28;20052;-79
2023/12/03 00:02:38;;;;;;;10.32;6.28;;;;;;;;;;5074139;28;20053;-79
2023/12/03 00:05:05;;;;;;;13.20;7.63;;;;;;;;;;5041041;28;20120;-79
2023/12/03 00:07:32;;;;;;;11.77;6.90;;;;;;;;;;5073897;28;20049;-79
2023/12/03 00:09:59;;;;;;;11.65;7.00;;;;;;;;;;5070658;28;20045;-79
2023/12/03 00:12:28;;;;;;;10.73;6.80;;;;;;;;;;5078099;28;20049;-78
2023/12/03 00:14:55;;;;;;;13.15;6.50;;;;;;;;;;5062572;28;20060;-78
2023/12/03 00:17:21;;;;;;;11.40;6.93;;;;;;;;;;5042424;28;20075;-78
2023/12/03 00:19:48;;;;;;;11.75;7.70;;;;;;;;;;5080902;28;20056;-78
2023/12/03 00:22:15;;;;;;;11.35;7.03;;;;;;;;;;5060414;28;20077;-78
2023/12/03 00:24:42;;;;;;;9.82;5.90;;;;;;;;;;5066290;28;20088;-78
2023/12/03 00:27:09;;;;;;;11.65;7.18;;;;;;;;;;5040954;28;20059;-78
2023/12/03 00:29:35;;;;;;;11.52;7.15;;;;;;;;;;5077004;28;20139;-78
2023/12/03 00:32:02;;;;;;;10.73;7.03;;;;;;;;;;5077163;28;20052;-78
2023/12/03 00:34:29;;;;;;;8.98;6.00;;;;;;;;;;5093087;28;20053;-78
2023/12/03 00:36:56;;;;;;;9.05;5.80;;;;;;;;;;5092952;28;20112;-78
2023/12/03 00:39:23;;;;;;;12.88;6.57;;;;;;;;;;5057384;28;20147;-79
2023/12/03 00:41:50;;;;;;;8.90;5.60;;;;;;;;;;5060519;28;20057;-78
2023/12/03 00:44:18;;;;;;;10.60;7.28;;;;;;;;;;5075178;28;20056;-78
2023/12/03 00:46:45;;;;;;;9.55;6.47;;;;;;;;;;5072710;28;20559;-78
2023/12/03 00:49:13;;;;;;;11.38;7.30;;;;;;;;;;5053690;28;20045;-79
2023/12/03 00:51:40;;;;;;;10.88;6.47;;;;;;;;;;5077710;28;20052;-79
2023/12/03 00:54:07;;;;;;;10.45;6.82;;;;;;;;;;5074363;28;20450;-79
2023/12/03 00:56:33;;;;;;;10.93;6.68;;;;;;;;;;5074651;28;20135;-79
2023/12/03 00:59:00;;;;;;;12.73;6.93;;;;;;;;;;5093095;28;20052;-79
2023/12/03 01:01:27;;;;;;;10.27;6.50;;;;;;;;;;5092938;28;20056;-79
2023/12/03 01:03:54;;;;;;;10.18;6.00;;;;;;;;;;5059595;28;20063;-79
2023/12/03 01:06:21;;;;;;;12.45;6.70;;;;;;;;;;5042420;28;20056;-80
2023/12/03 01:08:48;;;;;;;10.95;6.75;;;;;;;;;;5059445;28;20553;-79
2023/12/03 01:11:15;;;;;;;11.18;7.18;;;;;;;;;;5056387;28;20107;-79
2023/12/03 01:14:01;;;;;;;9.63;5.90;;;;;;;;;;5042346;28;20052;-80
2023/12/03 01:16:28;;;;;;;11.15;6.32;;;;;;;;;;5072112;28;20052;-78
2023/12/03 01:18:55;;;;;;;11.63;6.47;;;;;;;;;;5032753;28;20052;-80
2023/12/03 01:21:22;;;;;;;12.50;6.13;;;;;;;;;;5039132;28;20357;-79
2023/12/03 01:23:49;;;;;;;12.73;6.88;;;;;;;;;;5060220;28;20065;-79
2023/12/03 01:26:16;;;;;;;11.18;6.60;;;;;;;;;;5039416;28;20085;-82
2023/12/03 01:28:42;;;;;;;8.93;6.22;;;;;;;;;;5054712;28;20049;-81
2023/12/03 01:31:09;;;;;;;11.65;7.43;;;;;;;;;;5054573;28;20061;-81
2023/12/03 01:33:36;;;;;;;10.85;6.57;;;;;;;;;;5046844;28;20079;-81
2023/12/03 01:36:03;;;;;;;9.25;6.20;;;;;;;;;;5073313;28;20088;-80
2023/12/03 01:38:30;;;;;;;9.70;6.03;;;;;;;;;;5055753;28;20195;-80
2023/12/03 01:40:57;;;;;;;9.82;6.20;;;;;;;;;;5064092;28;20056;-80
2023/12/03 01:43:23;;;;;;;9.52;6.28;;;;;;;;;;5071880;28;20768;-81
2023/12/03 01:45:50;;;;;;;11.10;6.47;;;;;;;;;;5039739;28;20048;-81
2023/12/03 01:48:17;;;;;;;12.30;6.75;;;;;;;;;;5081327;28;20091;-81
2023/12/03 01:50:44;;;;;;;13.00;6.82;;;;;;;;;;5065008;28;20056;-81
2023/12/03 01:53:11;;;;;;;11.38;6.97;;;;;;;;;;5064913;28;20052;-81
2023/12/03 01:55:38;;;;;;;10.38;6.10;;;;;;;;;;5060305;28;20521;-80
2023/12/03 01:58:04;;;;;;;10.93;6.35;;;;;;;;;;5052057;28;20081;-79
2023/12/03 02:00:32;;;;;;;11.35;6.65;;;;;;;;;;5066815;28;20049;-80
2023/12/03 02:03:02;;;;;;;11.50;6.63;;;;;;;;;;5073019;28;20083;-79
2023/12/03 02:05:29;;;;;;;11.15;6.63;;;;;;;;;;5054783;28;20064;-78
2023/12/03 02:07:56;;;;;;;12.20;7.20;;;;;;;;;;5087524;28;20480;-78
2023/12/03 02:10:23;;;;;;;11.45;6.90;;;;;;;;;;5086891;28;20128;-78
2023/12/03 02:12:49;;;;;;;12.32;7.18;;;;;;;;;;5035000;28;20139;-78
2023/12/03 02:15:16;;;;;;;10.50;6.68;;;;;;;;;;5066678;28;20057;-78
2023/12/03 02:17:44;;;;;;;12.02;7.05;;;;;;;;;;5037343;28;20052;-78
2023/12/03 02:20:11;;;;;;;11.05;6.50;;;;;;;;;;5087264;28;20103;-78
2023/12/03 02:22:56;;;;;;;12.98;6.85;;;;;;;;;;5052411;28;20053;-78
2023/12/03 02:25:23;;;;;;;11.73;7.05;;;;;;;;;;5039013;28;20049;-79
2023/12/03 02:27:50;;;;;;;12.65;7.75;;;;;;;;;;5056485;28;20048;-79
2023/12/03 02:30:17;;;;;;;13.60;7.13;;;;;;;;;;5090667;28;20049;-79
2023/12/03 02:32:44;;;;;;;13.32;7.78;;;;;;;;;;5090222;28;20059;-79
2023/12/03 02:35:10;;;;;;;11.60;7.07;;;;;;;;;;5053783;28;20055;-78
2023/12/03 02:37:37;;;;;;;13.52;6.88;;;;;;;;;;5072067;28;20587;-79
2023/12/03 02:40:05;;;;;;;12.90;7.18;;;;;;;;;;5054007;28;20112;-79
2023/12/03 02:42:32;;;;;;;14.38;7.78;;;;;;;;;;5036007;28;20048;-79
2023/12/03 02:44:59;;;;;;;13.15;7.20;;;;;;;;;;5092651;28;20425;-80
2023/12/03 02:47:26;;;;;;;12.60;7.32;;;;;;;;;;5056351;28;20076;-79
2023/12/03 02:49:53;;;;;;;15.32;8.13;;;;;;;;;;5058760;28;20049;-80
2023/12/03 02:52:19;;;;;;;13.75;7.65;;;;;;;;;;5072517;28;20419;-80
2023/12/03 02:54:46;;;;;;;15.38;8.25;;;;;;;;;;5043445;28;20121;-81
2023/12/03 02:57:13;;;;;;;13.73;7.88;;;;;;;;;;5041052;28;20127;-81
2023/12/03 02:59:40;;;;;;;13.65;7.85;;;;;;;;;;5060667;28;20049;-80
2023/12/03 03:02:06;;;;;;;17.23;8.02;;;;;;;;;;5074494;28;20049;-80
2023/12/03 03:04:33;;;;;;;18.70;7.85;;;;;;;;;;5040884;28;20080;-79
2023/12/03 03:07:00;;;;;;;14.70;7.80;;;;;;;;;;5095927;28;20414;-79
2023/12/03 03:09:27;;;;;;;12.50;7.03;;;;;;;;;;5080739;28;20048;-80
2023/12/03 03:11:54;;;;;;;11.88;6.88;;;;;;;;;;5089525;28;20060;-80
2023/12/03 03:14:21;;;;;;;12.48;7.50;;;;;;;;;;5060678;28;20514;-80
2023/12/03 03:16:48;;;;;;;12.90;6.88;;;;;;;;;;5077172;28;20106;-80
2023/12/03 03:19:14;;;;;;;14.75;7.55;;;;;;;;;;5027957;28;20053;-80
2023/12/03 03:21:41;;;;;;;13.93;7.68;;;;;;;;;;5044214;28;20503;-80
2023/12/03 03:24:08;;;;;;;14.13;8.05;;;;;;;;;;5058751;28;20759;-79
2023/12/03 03:26:35;;;;;;;18.27;8.98;;;;;;;;;;5080643;28;20053;-80
2023/12/03 03:29:02;;;;;;;11.65;6.97;;;;;;;;;;5060313;28;20049;-80
2023/12/03 03:31:29;;;;;;;9.75;6.32;;;;;;;;;;5061453;28;20053;-80
2023/12/03 03:33:56;;;;;;;11.45;7.05;;;;;;;;;;5076985;28;20056;-81
2023/12/03 03:36:23;;;;;;;12.43;6.80;;;;;;;;;;5076948;28;20057;-79
2023/12/03 03:38:50;;;;;;;12.45;7.22;;;;;;;;;;5081334;28;20507;-80
2023/12/03 03:41:16;;;;;;;12.77;6.43;;;;;;;;;;5078590;28;20057;-80
2023/12/03 03:43:43;;;;;;;12.63;7.53;;;;;;;;;;5064387;28;20067;-80
2023/12/03 03:46:10;;;;;;;11.57;7.28;;;;;;;;;;5078474;28;20080;-82
2023/12/03 03:48:37;;;;;;;13.30;7.07;;;;;;;;;;5063224;28;20170;-78
2023/12/03 03:51:07;;;;;;;12.70;6.90;;;;;;;;;;5079056;28;20092;-83
2023/12/03 03:53:34;;;;;;;10.35;7.13;;;;;;;;;;5059229;28;20061;-79
2023/12/03 03:56:08;;;;;;;12.48;6.95;;;;;;;;;;5095618;28;20056;-79
2023/12/03 03:58:38;;;;;;;11.27;6.88;;;;;;;;;;5061455;28;20052;-79
2023/12/03 04:01:07;;;;;;;16.60;8.85;;;;;;;;;;5078017;28;20338;-79
2023/12/03 04:03:34;;;;;;;16.38;7.90;;;;;;;;;;5074441;28;20088;-79
2023/12/03 04:06:02;;;;;;;15.45;8.13;;;;;;;;;;5051221;28;20107;-80
2023/12/03 04:08:29;;;;;;;10.82;6.75;;;;;;;;;;5061461;28;20049;-79
2023/12/03 04:10:56;;;;;;;13.25;7.57;;;;;;;;;;5062222;28;20052;-79
2023/12/03 04:13:24;;;;;;;17.77;9.00;;;;;;;;;;5073607;28;20056;-78
2023/12/03 04:15:51;;;;;;;13.50;7.38;;;;;;;;;;5054382;28;20049;-77
2023/12/03 04:18:19;;;;;;;9.38;6.38;;;;;;;;;;5058697;28;20484;-80
2023/12/03 04:20:45;;;;;;;12.18;6.55;;;;;;;;;;5041859;28;20068;-79
2023/12/03 04:23:12;;;;;;;10.00;6.10;;;;;;;;;;5073567;28;20063;-80
2023/12/03 04:25:39;;;;;;;9.95;6.00;;;;;;;;;;5056966;28;20049;-80
2023/12/03 04:28:06;;;;;;;9.75;6.45;;;;;;;;;;5073082;28;20081;-79
2023/12/03 04:30:36;;;;;;;9.77;6.28;;;;;;;;;;5092012;28;20448;-80
2023/12/03 04:33:03;;;;;;;10.45;6.50;;;;;;;;;;5064874;28;20055;-79
2023/12/03 04:35:30;;;;;;;13.77;6.80;;;;;;;;;;5043276;28;20134;-80
2023/12/03 04:37:57;;;;;;;10.07;6.05;;;;;;;;;;5056219;28;20053;-79
2023/12/03 04:40:24;;;;;;;10.02;6.47;;;;;;;;;;5076164;28;20086;-80
2023/12/03 04:42:51;;;;;;;11.30;6.65;;;;;;;;;;5075644;28;20403;-80
2023/12/03 04:45:18;;;;;;;15.55;6.72;;;;;;;;;;5088964;28;20080;-80
2023/12/03 04:47:45;;;;;;;8.63;6.00;;;;;;;;;;5058321;28;20079;-80
2023/12/03 04:50:13;;;;;;;9.90;6.72;;;;;;;;;;5080117;28;20563;-80
2023/12/03 04:52:40;;;;;;;12.55;7.32;;;;;;;;;;5079758;28;20048;-80
2023/12/03 04:55:07;;;;;;;11.30;6.75;;;;;;;;;;5045652;28;20052;-80
2023/12/03 04:57:34;;;;;;;11.35;6.65;;;;;;;;;;5061878;28;20057;-80
2023/12/03 05:00:00;;;;;;;11.68;6.72;;;;;;;;;;5073119;28;20052;-80
2023/12/03 05:02:27;;;;;;;9.10;6.50;;;;;;;;;;5057911;28;20052;-81
2023/12/03 05:04:54;;;;;;;10.25;6.18;;;;;;;;;;5061008;28;20061;-80
2023/12/03 05:07:21;;;;;;;10.98;5.88;;;;;;;;;;5098308;28;20059;-81
2023/12/03 05:09:48;;;;;;;9.38;5.78;;;;;;;;;;5081372;28;20061;-80
2023/12/03 05:12:15;;;;;;;10.75;6.15;;;;;;;;;;5096105;28;20135;-80
2023/12/03 05:14:42;;;;;;;9.77;5.32;;;;;;;;;;5068417;28;20056;-79
2023/12/03 05:17:08;;;;;;;11.52;6.57;;;;;;;;;;5093561;28;20052;-80
2023/12/03 05:19:35;;;;;;;11.57;6.28;;;;;;;;;;5073315;28;20068;-79
2023/12/03 05:22:03;;;;;;;12.73;7.25;;;;;;;;;;5093341;28;20663;-79
2023/12/03 05:24:29;;;;;;;10.18;6.72;;;;;;;;;;5091867;28;20121;-79
2023/12/03 05:26:56;;;;;;;9.65;6.32;;;;;;;;;;5055418;28;20160;-78
2023/12/03 05:29:25;;;;;;;10.30;6.43;;;;;;;;;;5036127;28;20048;-78
2023/12/03 05:31:51;;;;;;;12.55;7.47;;;;;;;;;;5059126;28;20055;-79
2023/12/03 05:34:18;;;;;;;10.38;5.93;;;;;;;;;;5042855;28;20070;-79
2023/12/03 05:36:45;;;;;;;9.05;6.32;;;;;;;;;;5058092;28;20113;-79
2023/12/03 05:39:12;;;;;;;10.52;6.35;;;;;;;;;;5057503;28;20056;-79
2023/12/03 05:41:39;;;;;;;12.25;7.40;;;;;;;;;;5058260;28;20065;-79
2023/12/03 05:44:06;;;;;;;11.35;6.57;;;;;;;;;;5039568;28;20079;-80
2023/12/03 05:46:33;;;;;;;12.25;6.85;;;;;;;;;;5075554;28;20105;-79
2023/12/03 05:49:00;;;;;;;14.45;7.30;;;;;;;;;;5093159;28;20060;-80
2023/12/03 05:51:27;;;;;;;12.07;7.35;;;;;;;;;;5074969;28;20070;-78
2023/12/03 05:53:54;;;;;;;11.20;7.03;;;;;;;;;;5052855;28;20052;-79
2023/12/03 05:56:20;;;;;;;12.15;6.30;;;;;;;;;;5056934;28;20060;-79
2023/12/03 05:58:47;;;;;;;9.50;6.18;;;;;;;;;;5074348;28;20075;-78
2023/12/03 06:01:23;;;;;;;10.43;7.00;;;;;;;;;;5039729;28;20080;-79
2023/12/03 06:03:50;;;;;;;9.80;6.25;;;;;;;;;;5054879;28;20461;-79
2023/12/03 06:06:20;;;;;;;11.18;7.03;;;;;;;;;;5037436;28;20485;-79
2023/12/03 06:08:48;;;;;;;13.23;7.75;;;;;;;;;;5072974;28;20147;-78
2023/12/03 06:11:15;;;;;;;13.23;7.82;;;;;;;;;;5055587;28;20057;-79
2023/12/03 06:13:41;;;;;;;11.98;6.88;;;;;;;;;;5072776;28;20052;-80
2023/12/03 06:16:09;;;;;;;11.52;7.65;;;;;;;;;;5051847;28;20499;-80
2023/12/03 06:18:36;;;;;;;12.95;8.40;;;;;;;;;;5071749;28;20083;-79
2023/12/03 06:21:07;;;;;;;12.10;8.15;;;;;;;;;;5037291;28;20102;-79
2023/12/03 06:23:35;;;;;;;16.48;7.55;;;;;;;;;;5069824;28;20063;-79
2023/12/03 06:26:02;;;;;;;11.32;7.60;;;;;;;;;;5049088;28;20135;-79
2023/12/03 06:28:29;;;;;;;13.75;7.78;;;;;;;;;;5048882;28;20591;-79
2023/12/03 06:30:57;;;;;;;12.55;8.32;;;;;;;;;;5077273;28;20059;-79
2023/12/03 06:33:24;;;;;;;11.93;7.15;;;;;;;;;;5070572;28;20052;-78
2023/12/03 06:35:53;;;;;;;12.18;8.18;;;;;;;;;;5068040;28;20044;-77
2023/12/03 06:38:20;;;;;;;11.45;7.70;;;;;;;;;;5051234;28;20053;-76
2023/12/03 06:40:47;;;;;;;13.43;8.82;;;;;;;;;;5066706;28;20090;-77
2023/12/03 06:43:14;;;;;;;13.35;8.20;;;;;;;;;;5080562;28;20132;-77
2023/12/03 06:45:41;;;;;;;14.52;8.65;;;;;;;;;;5051123;28;20498;-76
2023/12/03 06:48:08;;;;;;;14.02;8.00;;;;;;;;;;5056429;28;20045;-77
2023/12/03 06:50:39;;;;;;;17.20;9.30;;;;;;;;;;5059054;28;20041;-77
2023/12/03 06:53:11;;;;;;;15.07;9.32;;;;;;;;;;5059334;28;20048;-77
2023/12/03 06:55:38;;;;;;;18.10;9.93;;;;;;;;;;5073937;28;20177;-77
2023/12/03 06:58:08;;;;;;;17.35;9.90;;;;;;;;;;5064945;28;20048;-77
2023/12/03 07:00:35;;;;;;;17.20;10.15;;;;;;;;;;5062764;28;20076;-77
2023/12/03 07:03:03;;;;;;;17.55;9.82;;;;;;;;;;5061401;28;20061;-77
2023/12/03 07:05:30;;;;;;;16.45;9.32;;;;;;;;;;5052158;28;20083;-76
2023/12/03 07:07:58;;;;;;;18.38;9.50;;;;;;;;;;5065063;28;20124;-76
2023/12/03 07:10:24;;;;;;;17.25;9.35;;;;;;;;;;5039977;28;20052;-77
2023/12/03 07:12:51;;;;;;;14.23;8.40;;;;;;;;;;5049448;28;20098;-77
2023/12/03 07:15:18;;;;;;;16.83;9.13;;;;;;;;;;5052017;28;20465;-77
2023/12/03 07:17:45;;;;;;;14.55;9.05;;;;;;;;;;5080636;28;20498;-78
2023/12/03 07:20:13;;;;;;;19.02;10.13;;;;;;;;;;5055857;28;20506;-77
2023/12/03 07:22:40;;;;;;;16.13;9.45;;;;;;;;;;5068008;28;20102;-77
2023/12/03 07:25:10;;;;;;;21.42;11.43;;;;;;;;;;5067306;28;20076;-77
2023/12/03 07:27:40;;;;;;;16.98;9.80;;;;;;;;;;5062621;28;20516;-77
2023/12/03 07:30:10;;;;;;;17.45;9.45;;;;;;;;;;5057862;28;20051;-78
2023/12/03 07:32:40;;;;;;;20.25;9.23;;;;;;;;;;5055459;28;20131;-79
2023/12/03 07:35:08;;;;;;;15.00;9.57;;;;;;;;;;5051940;28;20052;-79
2023/12/03 07:37:34;;;;;;;17.42;9.60;;;;;;;;;;5039905;28;20060;-79
2023/12/03 07:40:01;;;;;;;16.67;9.55;;;;;;;;;;5084290;28;20049;-79
2023/12/03 07:42:28;;;;;;;14.38;9.07;;;;;;;;;;5049359;28;20139;-78
2023/12/03 07:44:55;;;;;;;17.40;9.73;;;;;;;;;;5043295;28;20057;-79
2023/12/03 07:47:22;;;;;;;14.00;8.30;;;;;;;;;;5050467;28;20518;-78
2023/12/03 07:49:49;;;;;;;16.98;9.48;;;;;;;;;;5054235;28;20553;-78
2023/12/03 07:52:16;;;;;;;14.98;8.32;;;;;;;;;;5087723;28;20055;-77
2023/12/03 07:54:43;;;;;;;16.60;8.90;;;;;;;;;;5055422;28;20107;-79
2023/12/03 07:57:09;;;;;;;15.80;9.18;;;;;;;;;;5093315;28;20095;-80
2023/12/03 07:59:36;;;;;;;14.77;9.25;;;;;;;;;;5059909;28;20063;-78
2023/12/03 08:02:06;;;;;;;16.13;9.27;;;;;;;;;;5092535;28;20052;-80
2023/12/03 08:04:33;;;;;;;17.63;8.65;;;;;;;;;;5093261;28;20070;-80
2023/12/03 08:07:00;;;;;;;15.93;8.98;;;;;;;;;;5062995;28;20156;-78
2023/12/03 08:09:27;;;;;;;20.05;9.00;;;;;;;;;;5069806;28;20055;-77
2023/12/03 08:11:54;;;;;;;16.80;9.80;;;;;;;;;;5038700;28;20065;-77
2023/12/03 08:14:21;;;;;;;17.67;9.55;;;;;;;;;;5087219;28;20052;-77
2023/12/03 08:16:49;;;;;;;18.95;9.85;;;;;;;;;;5054650;28;20080;-83
2023/12/03 08:19:16;;;;;;;18.75;9.10;;;;;;;;;;5073500;28;20098;-76
2023/12/03 08:21:43;;;;;;;18.92;8.68;;;;;;;;;;5087599;28;20105;-77
2023/12/03 08:24:09;;;;;;;19.90;9.57;;;;;;;;;;5035375;28;20060;-78
2023/12/03 08:26:38;;;;;;;17.90;9.35;;;;;;;;;;5067206;28;20061;-78
2023/12/03 08:29:05;;;;;;;17.58;9.05;;;;;;;;;;5066764;28;20057;-78
2023/12/03 08:31:32;;;;;;;17.98;10.15;;;;;;;;;;5033517;28;20049;-77
2023/12/03 08:33:58;;;;;;;18.40;10.15;;;;;;;;;;5071189;28;20103;-78
2023/12/03 08:36:30;;;;;;;20.20;11.25;;;;;;;;;;5063206;28;20422;-78
2023/12/03 08:38:57;;;;;;;15.45;9.48;;;;;;;;;;5050525;28;20146;-79
2023/12/03 08:41:24;;;;;;;14.60;8.70;;;;;;;;;;5069785;28;20060;-78
2023/12/03 08:43:50;;;;;;;15.88;10.30;;;;;;;;;;5071140;28;20075;-78
2023/12/03 08:46:20;;;;;;;14.65;8.18;;;;;;;;;;5085353;28;20057;-80
2023/12/03 08:48:47;;;;;;;16.65;9.05;;;;;;;;;;5038305;28;20503;-78
2023/12/03 08:51:14;;;;;;;15.38;9.57;;;;;;;;;;5035764;28;20052;-78
2023/12/03 08:53:41;;;;;;;16.10;8.68;;;;;;;;;;5069768;28;20060;-79
2023/12/03 08:56:12;;;;;;;16.70;9.77;;;;;;;;;;5073191;28;20056;-79
2023/12/03 08:58:42;;;;;;;17.08;10.23;;;;;;;;;;5041629;28;20056;-80
2023/12/03 09:01:09;;;;;;;13.85;8.90;;;;;;;;;;5060925;28;20729;-79
2023/12/03 09:03:39;;;;;;;17.10;8.98;;;;;;;;;;5060504;28;20583;-79
2023/12/03 09:06:07;;;;;;;15.95;8.68;;;;;;;;;;5057439;28;20450;-79
2023/12/03 09:08:34;;;;;;;16.10;8.95;;;;;;;;;;5066976;28;20465;-78
2023/12/03 09:11:01;;;;;;;14.55;8.55;;;;;;;;;;5088788;28;20498;-80
2023/12/03 09:13:27;;;;;;;16.33;9.50;;;;;;;;;;5091400;28;20098;-79
2023/12/03 09:15:56;;;;;;;15.75;9.23;;;;;;;;;;5041589;28;20434;-84
2023/12/03 09:18:23;;;;;;;14.18;8.75;;;;;;;;;;5060629;28;20102;-80
2023/12/03 09:20:50;;;;;;;15.50;8.18;;;;;;;;;;5064676;28;20052;-81
2023/12/03 09:23:18;;;;;;;14.98;9.10;;;;;;;;;;5072657;28;20052;-84
2023/12/03 09:25:44;;;;;;;15.15;8.10;;;;;;;;;;5056805;28;20144;-79
2023/12/03 09:28:11;;;;;;;15.43;9.02;;;;;;;;;;5050594;28;20059;-83
2023/12/03 09:30:38;;;;;;;18.30;10.25;;;;;;;;;;5042100;28;20083;-86
2023/12/03 09:33:05;;;;;;;14.88;9.00;;;;;;;;;;5091277;28;20056;-80
2023/12/03 09:35:32;;;;;;;15.80;10.40;;;;;;;;;;5080174;28;20111;-78
2023/12/03 09:37:59;;;;;;;15.15;9.07;;;;;;;;;;5070701;28;20479;-78
2023/12/03 09:40:26;;;;;;;15.57;9.27;;;;;;;;;;5066412;28;20064;-77
2023/12/03 09:42:56;;;;;;;14.15;8.20;;;;;;;;;;5067882;28;20053;-78
2023/12/03 09:45:26;;;;;;;17.02;9.73;;;;;;;;;;5048109;28;20066;-78
2023/12/03 09:47:57;;;;;;;15.98;9.57;;;;;;;;;;5053042;28;20060;-79
2023/12/03 09:50:24;;;;;;;15.43;8.23;;;;;;;;;;5073974;28;20048;-80
2023/12/03 09:52:52;;;;;;;12.82;7.75;;;;;;;;;;5050229;28;20052;-81
2023/12/03 09:55:22;;;;;;;14.40;8.35;;;;;;;;;;5056367;28;20052;-80
2023/12/03 09:57:50;;;;;;;16.05;9.27;;;;;;;;;;5046506;28;20060;-80
2023/12/03 10:00:17;;;;;;;15.73;8.45;;;;;;;;;;5046143;28;20056;-78
2023/12/03 10:02:44;;;;;;;13.68;7.82;;;;;;;;;;5055312;28;20055;-80
2023/12/03 10:05:12;;;;;;;14.48;8.90;;;;;;;;;;5034570;28;20091;-79
2023/12/03 10:07:39;;;;;;;14.13;8.40;;;;;;;;;;5056468;28;20048;-80
2023/12/03 10:10:06;;;;;;;12.93;7.50;;;;;;;;;;5033844;28;20098;-79
2023/12/03 10:12:41;;;;;;;15.27;8.85;;;;;;;;;;5068793;28;20080;-79
2023/12/03 10:15:09;;;;;;;13.15;7.75;;;;;;;;;;5066834;28;20068;-79
2023/12/03 10:17:37;;;;;;;16.13;9.07;;;;;;;;;;5053788;28;20041;-79
2023/12/03 10:20:26;;;;;;;15.77;9.02;;;;;;;;;;5033281;28;20502;-79
2023/12/03 10:22:57;;;;;;;15.63;9.25;;;;;;;;;;5068068;28;20064;-78
2023/12/03 10:25:31;;;;;;;16.58;9.40;;;;;;;;;;5054380;28;20525;-78
2023/12/03 10:28:00;;;;;;;16.60;9.77;;;;;;;;;;5062217;28;20087;-79
2023/12/03 10:30:27;;;;;;;14.95;8.73;;;;;;;;;;5062981;28;20485;-79
2023/12/03 10:32:55;;;;;;;17.42;9.10;;;;;;;;;;5072351;28;20086;-79
2023/12/03 10:35:22;;;;;;;15.70;9.07;;;;;;;;;;5068505;28;20052;-79
2023/12/03 10:37:49;;;;;;;16.42;9.07;;;;;;;;;;5061493;28;20056;-79
2023/12/03 10:40:18;;;;;;;15.35;8.10;;;;;;;;;;5045202;28;20507;-79
2023/12/03 10:42:45;;;;;;;17.15;8.73;;;;;;;;;;5071807;28;20052;-80
2023/12/03 10:45:14;;;;;;;13.75;8.70;;;;;;;;;;5068178;28;20135;-79
2023/12/03 10:47:41;;;;;;;14.45;8.15;;;;;;;;;;5071196;28;20131;-79
2023/12/03 10:50:10;;;;;;;15.85;9.15;;;;;;;;;;5038248;28;20391;-79
2023/12/03 10:52:38;;;;;;;13.73;9.55;;;;;;;;;;5038171;28;20044;-79
2023/12/03 10:55:06;;;;;;;14.75;8.45;;;;;;;;;;5069063;28;20474;-78
2023/12/03 10:57:36;;;;;;;14.20;9.05;;;;;;;;;;5069426;28;20064;-78
2023/12/03 11:00:10;;;;;;;14.98;8.80;;;;;;;;;;5065873;28;20055;-78
2023/12/03 11:02:49;;;;;;;15.02;8.90;;;;;;;;;;5042329;28;20076;-79
2023/12/03 11:05:32;;;;;;;14.20;8.63;;;;;;;;;;5027123;28;20060;-78
2023/12/03 11:08:02;;;;;;;16.02;9.20;;;;;;;;;;5070183;28;20060;-80
2023/12/03 11:10:29;;;;;;;13.23;8.77;;;;;;;;;;5052689;28;20792;-79
2023/12/03 11:12:56;;;;;;;14.25;9.25;;;;;;;;;;5033571;28;20049;-79
2023/12/03 11:15:23;;;;;;;14.60;8.60;;;;;;;;;;5052928;28;20080;-78
2023/12/03 11:17:50;;;;;;;14.18;8.57;;;;;;;;;;5039379;28;20063;-79
2023/12/03 11:20:21;;;;;;;12.48;8.05;;;;;;;;;;5054604;28;20070;-83
2023/12/03 11:22:57;;;;;;;14.75;8.55;;;;;;;;;;5065328;28;20051;-78
2023/12/03 11:25:27;;;;;;;12.60;8.32;;;;;;;;;;5064153;28;20036;-79
2023/12/03 11:27:57;;;;;;;16.42;9.80;;;;;;;;;;5053779;28;20113;-78
2023/12/03 11:30:42;;;;;;;12.23;8.10;;;;;;;;;;5068403;28;20063;-79
2023/12/03 11:33:19;;;;;;;14.00;8.35;;;;;;;;;;5072594;28;20068;-79
2023/12/03 11:35:47;;;;;;;16.15;8.88;;;;;;;;;;5042596;28;20109;-78
2023/12/03 11:38:16;;;;;;;13.57;7.78;;;;;;;;;;5063277;28;20048;-80
2023/12/03 11:40:42;;;;;;;16.88;9.07;;;;;;;;;;5088536;28;20164;-79
2023/12/03 11:43:23;;;;;;;15.18;8.93;;;;;;;;;;5076763;28;20056;-79
2023/12/03 11:45:53;;;;;;;12.38;8.25;;;;;;;;;;5075214;28;20053;-79
2023/12/03 11:48:21;;;;;;;16.10;8.88;;;;;;;;;;5056196;28;20048;-81
2023/12/03 11:50:48;;;;;;;17.30;9.40;;;;;;;;;;5077150;28;20064;-80
2023/12/03 11:53:16;;;;;;;14.82;8.45;;;;;;;;;;5085038;28;20053;-80
2023/12/03 11:55:48;;;;;;;13.45;8.57;;;;;;;;;;5067241;28;20124;-80
2023/12/03 11:58:16;;;;;;;15.07;8.90;;;;;;;;;;5076627;28;20071;-81
2023/12/03 12:00:45;;;;;;;16.17;9.23;;;;;;;;;;5050776;28;20318;-80
2023/12/03 12:03:13;;;;;;;15.18;9.45;;;;;;;;;;5082374;28;20065;-81
2023/12/03 12:05:47;;;;;;;14.68;9.25;;;;;;;;;;5067444;28;20078;-81
2023/12/03 12:08:21;;;;;;;12.60;8.07;;;;;;;;;;5074470;28;20049;-80
2023/12/03 12:10:49;;;;;;;16.42;8.32;;;;;;;;;;5062717;28;20049;-80
2023/12/03 12:13:20;;;;;;;13.63;8.38;;;;;;;;;;5065731;28;20163;-79
2023/12/03 12:15:46;;;;;;;15.02;8.55;;;;;;;;;;5063365;28;20070;-80
2023/12/03 12:18:13;;;;;;;13.43;8.43;;;;;;;;;;5091106;28;20073;-81
2023/12/03 12:20:40;;;;;;;13.20;7.97;;;;;;;;;;5069917;28;20041;-79
2023/12/03 12:23:07;;;;;;;12.18;7.72;;;;;;;;;;5069460;28;20040;-80
2023/12/03 12:25:34;;;;;;;11.38;7.10;;;;;;;;;;5089694;28;20067;-80
2023/12/03 12:28:01;;;;;;;12.65;8.25;;;;;;;;;;5065687;28;20081;-79
2023/12/03 12:30:29;;;;;;;12.00;7.80;;;;;;;;;;5060142;28;20427;-82
2023/12/03 12:33:04;;;;;;;16.95;9.15;;;;;;;;;;5044690;28;20127;-81
2023/12/03 12:35:32;;;;;;;13.88;8.85;;;;;;;;;;5058365;28;20063;-82
2023/12/03 12:38:04;;;;;;;13.07;8.18;;;;;;;;;;5060153;28;20063;-82
2023/12/03 12:40:32;;;;;;;13.15;8.80;;;;;;;;;;5079641;28;20055;-81
2023/12/03 12:43:10;;;;;;;17.45;8.98;;;;;;;;;;5073492;28;20107;-82
2023/12/03 12:45:40;;;;;;;15.82;8.63;;;;;;;;;;5084676;28;20074;-81
2023/12/03 12:48:35;;;;;;;14.57;7.80;;;;;;;;;;5057289;28;20096;-81
2023/12/03 12:51:07;;;;;;;14.77;8.80;;;;;;;;;;5071863;28;20400;-80
2023/12/03 12:53:56;;;;;;;13.73;7.70;;;;;;;;;;5064291;28;20079;-86
2023/12/03 12:56:23;;;;;;;12.98;7.15;;;;;;;;;;5073358;28;20494;-79
2023/12/03 12:58:50;;;;;;;12.40;7.13;;;;;;;;;;5086329;28;20052;-81
2023/12/03 13:01:18;;;;;;;14.45;7.65;;;;;;;;;;5067836;28;20667;-84
2023/12/03 13:03:44;;;;;;;13.82;7.72;;;;;;;;;;5050113;28;20056;-86
2023/12/03 13:06:11;;;;;;;12.48;8.52;;;;;;;;;;5065512;28;20093;-86
2023/12/03 13:08:39;;;;;;;12.52;7.88;;;;;;;;;;5068710;28;20482;-81
2023/12/03 13:11:06;;;;;;;11.82;7.15;;;;;;;;;;5076286;28;20072;-85
2023/12/03 13:13:32;;;;;;;13.82;8.38;;;;;;;;;;5056148;28;20080;-81
2023/12/03 13:16:01;;;;;;;11.88;7.22;;;;;;;;;;5087375;28;20056;-82
2023/12/03 13:18:28;;;;;;;12.73;8.27;;;;;;;;;;5056464;28;20087;-82
2023/12/03 13:20:55;;;;;;;13.10;8.02;;;;;;;;;;5037823;28;20048;-81
2023/12/03 13:23:22;;;;;;;14.75;7.90;;;;;;;;;;5067182;28;20040;-80
2023/12/03 13:25:50;;;;;;;12.35;7.28;;;;;;;;;;5060265;28;20056;-80
2023/12/03 13:28:17;;;;;;;12.73;7.57;;;;;;;;;;5061431;28;20053;-81
2023/12/03 13:30:44;;;;;;;11.52;7.40;;;;;;;;;;5057864;28;20052;-81
2023/12/03 13:33:11;;;;;;;12.68;7.78;;;;;;;;;;5048105;28;20049;-81
2023/12/03 13:35:38;;;;;;;12.68;7.82;;;;;;;;;;5062399;28;20079;-81
2023/12/03 13:38:05;;;;;;;12.85;7.25;;;;;;;;;;5057763;28;20061;-81
2023/12/03 13:40:32;;;;;;;12.95;7.53;;;;;;;;;;5053155;28;20053;-80
2023/12/03 13:42:59;;;;;;;13.63;8.30;;;;;;;;;;5059293;28;20490;-80
2023/12/03 13:45:25;;;;;;;14.00;8.50;;;;;;;;;;5075663;28;20063;-80
2023/12/03 13:47:54;;;;;;;14.65;8.00;;;;;;;;;;5074692;28;20049;-81
2023/12/03 13:50:21;;;;;;;13.50;6.93;;;;;;;;;;5068877;28;20063;-81
2023/12/03 13:52:47;;;;;;;11.55;7.25;;;;;;;;;;5076925;28;20045;-82
2023/12/03 13:55:14;;;;;;;12.50;7.15;;;;;;;;;;5060461;28;20052;-81
2023/12/03 13:57:41;;;;;;;13.43;6.97;;;;;;;;;;5056666;28;20494;-80
2023/12/03 14:00:08;;;;;;;13.25;7.78;;;;;;;;;;5071779;28;20060;-82
2023/12/03 14:02:36;;;;;;;12.52;7.78;;;;;;;;;;5063709;28;20066;-81
2023/12/03 14:05:08;;;;;;;14.48;7.20;;;;;;;;;;5078305;28;20091;-81
2023/12/03 14:07:52;;;;;;;12.75;7.50;;;;;;;;;;5068241;28;20114;-81
2023/12/03 14:10:21;;;;;;;15.32;7.80;;;;;;;;;;5061619;28;20060;-81
2023/12/03 14:12:48;;;;;;;13.45;6.40;;;;;;;;;;5064996;28;20053;-81
2023/12/03 14:15:15;;;;;;;15.77;7.55;;;;;;;;;;5063308;28;20056;-81
2023/12/03 14:17:42;;;;;;;18.85;8.85;;;;;;;;;;5045542;28;20052;-81
2023/12/03 14:20:09;;;;;;;15.65;7.93;;;;;;;;;;5081799;28;20056;-80
2023/12/03 14:22:36;;;;;;;12.98;7.53;;;;;;;;;;5082408;28;20052;-81
2023/12/03 14:25:03;;;;;;;10.93;6.47;;;;;;;;;;5060674;28;20044;-82
2023/12/03 14:27:30;;;;;;;11.82;6.85;;;;;;;;;;5061131;28;20063;-81
2023/12/03 14:29:57;;;;;;;12.57;7.88;;;;;;;;;;5062765;28;20107;-81
2023/12/03 14:32:24;;;;;;;12.90;7.28;;;;;;;;;;5066369;28;20112;-81
2023/12/03 14:34:50;;;;;;;14.57;7.85;;;;;;;;;;5090994;28;20052;-81